Time;durP1;ratioP1;P1;durP2;ratioP2;P2;SDS_P1;SDS_P2;PMS_P1;PMS_P2;Temp;Humidity;BMP_temperature;BMP_pressure;BME280_temperature;BME280_humidity;BME280_pressure;Samples;Min_cycle;Max_cycle;Signal;HPM_P1;HPM_P2
2020/12/01 00:02:22;;;;;;;26.05;13.35;;;4.20;94.50;;;;;;5091998;28;20286;-80
2020/12/01 00:04:48;;;;;;;27.02;14.38;;;4.20;94.70;;;;;;5073639;28;20030;-80
2020/12/01 00:07:13;;;;;;;26.15;13.60;;;4.20;94.60;;;;;;5094189;28;20020;-79
2020/12/01 00:09:39;;;;;;;29.83;14.68;;;4.30;94.50;;;;;;5104237;28;20395;-80
2020/12/01 00:12:05;;;;;;;26.75;13.07;;;4.20;94.70;;;;;;5093602;28;20032;-80
2020/12/01 00:14:31;;;;;;;26.70;13.18;;;4.30;94.70;;;;;;5093038;28;20113;-79
2020/12/01 00:16:57;;;;;;;26.40;14.30;;;4.30;94.60;;;;;;5092194;28;20020;-80
2020/12/01 00:19:23;;;;;;;28.83;13.95;;;4.30;94.60;;;;;;5091222;28;20057;-79
2020/12/01 00:21:49;;;;;;;27.20;14.45;;;4.30;94.70;;;;;;5091774;28;20047;-80
2020/12/01 00:24:14;;;;;;;27.45;13.88;;;4.30;94.60;;;;;;5093286;28;20028;-80
2020/12/01 00:26:40;;;;;;;27.23;14.07;;;4.30;94.60;;;;;;5075053;28;20031;-79
2020/12/01 00:29:06;;;;;;;27.70;14.95;;;4.30;94.70;;;;;;5091877;28;20113;-79
2020/12/01 00:31:39;;;;;;;24.17;13.35;;;4.30;94.80;;;;;;5091912;28;20028;-79
2020/12/01 00:34:07;;;;;;;27.98;15.18;;;4.40;94.60;;;;;;5074615;28;20583;-78
2020/12/01 00:36:33;;;;;;;28.40;14.88;;;4.40;94.50;;;;;;5107514;28;20039;-77
2020/12/01 00:38:59;;;;;;;27.65;14.60;;;4.40;94.70;;;;;;5101107;28;20028;-79
2020/12/01 00:41:24;;;;;;;32.13;15.07;;;4.50;94.70;;;;;;5094334;28;20544;-79
2020/12/01 00:43:50;;;;;;;31.95;17.02;;;4.40;94.70;;;;;;5089491;28;20024;-79
2020/12/01 00:46:16;;;;;;;29.33;15.25;;;4.40;94.70;;;;;;5091208;28;20028;-79
2020/12/01 00:48:46;;;;;;;33.22;15.80;;;4.50;94.60;;;;;;5118385;22;20107;-75
2020/12/01 00:51:13;;;;;;;31.35;16.10;;;4.50;94.80;;;;;;5059669;28;20438;-75
2020/12/01 00:53:39;;;;;;;29.73;15.63;;;4.50;94.60;;;;;;5054127;28;20123;-75
2020/12/01 00:56:04;;;;;;;30.25;15.48;;;4.50;94.70;;;;;;5053498;28;20107;-75
2020/12/01 00:58:30;;;;;;;27.52;14.77;;;4.50;94.90;;;;;;5053910;28;20028;-75
2020/12/01 01:00:56;;;;;;;31.13;16.10;;;4.50;94.60;;;;;;5040722;28;20025;-75
2020/12/01 01:03:21;;;;;;;35.22;18.08;;;4.50;94.60;;;;;;5019906;28;20069;-75
2020/12/01 01:05:47;;;;;;;35.38;16.65;;;4.50;94.70;;;;;;5020638;28;20107;-76
2020/12/01 01:08:13;;;;;;;35.67;17.58;;;4.50;94.80;;;;;;5040585;28;20406;-75
2020/12/01 01:10:39;;;;;;;34.45;17.17;;;4.50;94.90;;;;;;5020042;28;20261;-76
2020/12/01 01:13:05;;;;;;;34.72;16.00;;;4.60;94.70;;;;;;5027302;28;20059;-75
2020/12/01 01:15:33;;;;;;;31.05;16.05;;;4.60;94.60;;;;;;5043615;28;20033;-75
2020/12/01 01:18:00;;;;;;;30.83;16.40;;;4.50;94.70;;;;;;5061114;28;20087;-76
2020/12/01 01:20:27;;;;;;;37.10;18.45;;;4.50;94.80;;;;;;5041397;28;20021;-75
2020/12/01 01:22:53;;;;;;;34.65;17.30;;;4.50;94.80;;;;;;5039473;28;20052;-75
2020/12/01 01:25:20;;;;;;;37.72;17.48;;;4.50;94.70;;;;;;5059336;28;20554;-75
2020/12/01 01:27:46;;;;;;;34.20;18.02;;;4.50;94.80;;;;;;5039280;28;20369;-75
2020/12/01 01:30:18;;;;;;;38.33;20.55;;;4.60;94.80;;;;;;5027189;28;20476;-75
2020/12/01 01:32:44;;;;;;;34.70;18.38;;;4.50;94.80;;;;;;5021125;28;20056;-75
2020/12/01 01:35:10;;;;;;;38.45;18.00;;;4.50;94.90;;;;;;5050427;28;20412;-74
2020/12/01 01:37:36;;;;;;;31.55;16.95;;;4.60;94.70;;;;;;5059899;28;20083;-75
2020/12/01 01:40:04;;;;;;;35.88;17.80;;;4.50;94.80;;;;;;5044959;28;20028;-75
2020/12/01 01:42:30;;;;;;;37.10;17.60;;;4.60;94.80;;;;;;5026167;28;20021;-75
2020/12/01 01:44:56;;;;;;;35.05;17.77;;;4.60;94.80;;;;;;5061499;28;20110;-75
2020/12/01 01:47:29;;;;;;;33.72;17.27;;;4.60;94.60;;;;;;5042163;28;20047;-75
2020/12/01 01:49:58;;;;;;;37.08;19.08;;;4.60;94.80;;;;;;5027677;28;20113;-75
2020/12/01 01:52:31;;;;;;;35.58;18.50;;;4.60;94.80;;;;;;5059676;28;20052;-75
2020/12/01 01:55:11;;;;;;;36.80;17.92;;;4.60;94.70;;;;;;5042856;28;20047;-75
2020/12/01 01:57:38;;;;;;;33.95;16.98;;;4.60;94.80;;;;;;5065743;28;20025;-75
2020/12/01 02:00:17;;;;;;;34.88;18.30;;;4.60;94.80;;;;;;5067350;28;20037;-75
2020/12/01 02:02:42;;;;;;;33.75;18.02;;;4.70;94.70;;;;;;5045696;28;20032;-75
2020/12/01 02:05:09;;;;;;;36.08;17.95;;;4.70;94.70;;;;;;5024918;28;20029;-75
2020/12/01 02:07:34;;;;;;;33.42;17.30;;;4.60;94.70;;;;;;5026308;28;20047;-75
2020/12/01 02:10:00;;;;;;;34.63;18.40;;;4.70;94.70;;;;;;5042767;28;20025;-75
2020/12/01 02:12:26;;;;;;;36.20;18.88;;;4.60;94.80;;;;;;5046020;28;20523;-75
2020/12/01 02:14:59;;;;;;;37.72;20.00;;;4.60;94.80;;;;;;5042323;28;20033;-75
2020/12/01 02:17:32;;;;;;;37.55;18.95;;;4.60;94.80;;;;;;5026653;28;20400;-75
2020/12/01 02:20:13;;;;;;;37.78;18.30;;;4.70;94.60;;;;;;5044318;28;20163;-75
2020/12/01 02:22:46;;;;;;;38.05;18.50;;;4.70;94.70;;;;;;5026314;28;20871;-75
2020/12/01 02:25:14;;;;;;;36.05;17.75;;;4.70;94.70;;;;;;5024034;28;20167;-75
2020/12/01 02:27:40;;;;;;;38.58;18.65;;;4.70;94.70;;;;;;5028069;28;20036;-75
2020/12/01 02:30:11;;;;;;;39.25;19.02;;;4.70;94.80;;;;;;5044126;28;20028;-75
2020/12/01 02:32:37;;;;;;;38.17;17.48;;;4.60;94.80;;;;;;5062672;28;20431;-75
2020/12/01 02:35:04;;;;;;;37.58;19.10;;;4.60;94.90;;;;;;5063209;28;20484;-75
2020/12/01 02:37:30;;;;;;;38.42;19.42;;;4.60;94.80;;;;;;5061500;28;20118;-75
2020/12/01 02:39:57;;;;;;;37.88;19.05;;;4.60;94.90;;;;;;5059333;28;20484;-75
2020/12/01 02:42:27;;;;;;;35.28;18.67;;;4.70;94.70;;;;;;5061637;28;20032;-75
2020/12/01 02:44:54;;;;;;;36.42;18.77;;;4.70;94.80;;;;;;5043948;28;20106;-75
2020/12/01 02:47:20;;;;;;;34.60;18.13;;;4.70;94.70;;;;;;5027463;28;20028;-75
2020/12/01 02:49:46;;;;;;;36.10;18.33;;;4.60;94.80;;;;;;5060911;28;20028;-75
2020/12/01 02:52:12;;;;;;;34.83;17.38;;;4.60;94.90;;;;;;5026731;28;20611;-75
2020/12/01 02:54:38;;;;;;;32.78;16.45;;;4.70;94.90;;;;;;5025873;28;20037;-75
2020/12/01 02:57:04;;;;;;;34.33;17.58;;;4.60;94.80;;;;;;5044224;28;20029;-74
2020/12/01 02:59:29;;;;;;;38.08;18.88;;;4.70;95.00;;;;;;5041080;28;20061;-75
2020/12/01 03:01:55;;;;;;;38.15;19.80;;;4.60;94.90;;;;;;5040008;28;20034;-75
2020/12/01 03:04:21;;;;;;;39.95;19.30;;;4.60;95.00;;;;;;5024814;28;20020;-75
2020/12/01 03:06:47;;;;;;;38.97;18.38;;;4.60;95.00;;;;;;5061491;28;20039;-75
2020/12/01 03:09:16;;;;;;;39.17;19.60;;;4.70;95.00;;;;;;5026811;28;20029;-75
2020/12/01 03:11:42;;;;;;;32.90;17.70;;;4.60;94.90;;;;;;5059832;28;20103;-75
2020/12/01 03:14:08;;;;;;;35.95;18.73;;;4.70;95.00;;;;;;5057815;28;20479;-75
2020/12/01 03:16:34;;;;;;;38.72;18.67;;;4.60;95.00;;;;;;5042605;28;20033;-75
2020/12/01 03:19:00;;;;;;;36.60;18.27;;;4.60;95.10;;;;;;5027133;28;20035;-75
2020/12/01 03:21:25;;;;;;;38.78;19.05;;;4.60;95.10;;;;;;5058685;28;20448;-75
2020/12/01 03:23:51;;;;;;;38.90;19.20;;;4.60;95.00;;;;;;5040052;28;20083;-75
2020/12/01 03:26:18;;;;;;;37.63;19.02;;;4.60;95.10;;;;;;5024591;28;20027;-75
2020/12/01 03:28:45;;;;;;;40.20;18.83;;;4.60;95.10;;;;;;5059394;28;20028;-75
2020/12/01 03:31:12;;;;;;;40.75;20.40;;;4.60;95.20;;;;;;5041378;28;20025;-75
2020/12/01 03:33:38;;;;;;;37.92;19.20;;;4.60;95.10;;;;;;5046316;28;20041;-75
2020/12/01 03:36:04;;;;;;;34.95;18.35;;;4.60;95.10;;;;;;5042763;28;20119;-75
2020/12/01 03:38:30;;;;;;;39.47;18.73;;;4.70;95.10;;;;;;5042954;28;20586;-75
2020/12/01 03:40:55;;;;;;;35.72;19.15;;;4.60;94.90;;;;;;5060111;28;20107;-75
2020/12/01 03:43:22;;;;;;;36.95;18.50;;;4.70;95.00;;;;;;5041724;28;20392;-75
2020/12/01 03:45:47;;;;;;;40.58;19.92;;;4.60;95.00;;;;;;5023910;28;20025;-75
2020/12/01 03:48:14;;;;;;;38.55;19.52;;;4.60;95.10;;;;;;5044361;28;20036;-75
2020/12/01 03:50:40;;;;;;;35.83;18.88;;;4.60;95.10;;;;;;5024347;28;20048;-75
2020/12/01 03:53:05;;;;;;;38.10;18.00;;;4.60;95.10;;;;;;5024086;28;20503;-75
2020/12/01 03:55:31;;;;;;;36.65;18.90;;;4.60;95.10;;;;;;5022640;28;20025;-76
2020/12/01 03:57:57;;;;;;;43.72;20.25;;;4.60;95.10;;;;;;5041097;28;20418;-74
2020/12/01 04:00:26;;;;;;;37.45;19.67;;;4.70;95.10;;;;;;5023867;28;20060;-75
2020/12/01 04:02:52;;;;;;;37.20;18.35;;;4.60;95.00;;;;;;5057068;28;20545;-76
2020/12/01 04:05:20;;;;;;;39.40;20.17;;;4.60;95.10;;;;;;5022396;28;20036;-75
2020/12/01 04:07:46;;;;;;;40.38;19.77;;;4.70;95.10;;;;;;5024233;28;20028;-76
2020/12/01 04:10:16;;;;;;;41.55;20.42;;;4.70;95.00;;;;;;5022863;28;20480;-76
2020/12/01 04:12:42;;;;;;;39.15;19.40;;;4.60;95.00;;;;;;5059813;28;20089;-76
2020/12/01 04:15:09;;;;;;;35.50;18.77;;;4.60;95.10;;;;;;5023777;28;20034;-76
2020/12/01 04:17:35;;;;;;;40.67;20.10;;;4.60;95.00;;;;;;5040962;28;20025;-76
2020/12/01 04:20:01;;;;;;;42.00;20.70;;;4.60;95.10;;;;;;5020820;28;20116;-76
2020/12/01 04:22:26;;;;;;;36.05;19.75;;;4.60;95.10;;;;;;5041987;28;20114;-76
2020/12/01 04:24:52;;;;;;;39.08;20.85;;;4.60;95.10;;;;;;5057919;28;20029;-76
2020/12/01 04:27:18;;;;;;;39.20;19.90;;;4.60;95.10;;;;;;5043110;28;20476;-75
2020/12/01 04:29:44;;;;;;;35.95;19.08;;;4.60;95.10;;;;;;5021343;28;20033;-76
2020/12/01 04:32:10;;;;;;;39.60;20.27;;;4.60;95.00;;;;;;5024829;28;20029;-76
2020/12/01 04:34:36;;;;;;;39.97;19.65;;;4.60;95.20;;;;;;5060907;28;20383;-76
2020/12/01 04:37:04;;;;;;;40.88;19.23;;;4.60;95.10;;;;;;5043063;28;20088;-76
2020/12/01 04:39:29;;;;;;;39.83;19.92;;;4.60;95.10;;;;;;5041051;28;20443;-75
2020/12/01 04:41:56;;;;;;;38.20;17.73;;;4.60;95.10;;;;;;5044076;28;20025;-76
2020/12/01 04:44:41;;;;;;;38.22;19.27;;;4.60;95.00;;;;;;5027053;28;20020;-76
2020/12/01 04:47:21;;;;;;;38.63;18.67;;;4.60;95.00;;;;;;5042235;28;20488;-75
2020/12/01 04:49:54;;;;;;;37.40;18.83;;;4.60;95.00;;;;;;5058005;28;20051;-75
2020/12/01 04:52:53;;;;;;;33.20;18.13;;;4.60;95.00;;;;;;5055189;28;20033;-76
2020/12/01 04:55:35;;;;;;;41.40;19.70;;;4.70;95.10;;;;;;5024003;28;20024;-76
2020/12/01 04:58:12;;;;;;;37.65;17.77;;;4.60;94.90;;;;;;5024059;28;20029;-76
2020/12/01 05:01:02;;;;;;;36.22;18.67;;;4.70;94.90;;;;;;5035971;28;20029;-76
2020/12/01 05:03:42;;;;;;;37.63;18.58;;;4.60;94.90;;;;;;5025171;28;20029;-76
2020/12/01 05:09:09;;;;;;;38.65;17.13;;;4.70;94.90;;;;;;5040030;28;20033;-76
2020/12/01 05:11:56;;;;;;;36.05;18.60;;;4.70;94.90;;;;;;5025116;28;20046;-75
2020/12/01 05:14:25;;;;;;;30.80;16.83;;;4.70;94.90;;;;;;5020559;28;20025;-75
2020/12/01 05:17:07;;;;;;;36.17;18.10;;;4.60;94.80;;;;;;5039924;28;20033;-76
2020/12/01 05:19:45;;;;;;;35.97;17.90;;;4.60;94.80;;;;;;5040835;28;20108;-76
2020/12/01 05:22:13;;;;;;;33.67;18.08;;;4.60;94.90;;;;;;5022258;28;20028;-76
2020/12/01 05:24:42;;;;;;;38.92;18.33;;;4.60;95.00;;;;;;5042793;28;20029;-76
2020/12/01 05:27:37;;;;;;;32.85;16.95;;;4.60;94.90;;;;;;5023967;28;20025;-76
2020/12/01 05:30:06;;;;;;;35.88;17.38;;;4.60;95.00;;;;;;5031181;28;20037;-75
2020/12/01 05:32:49;;;;;;;37.90;18.48;;;4.60;95.00;;;;;;5038352;28;20510;-75
2020/12/01 05:35:28;;;;;;;34.70;18.13;;;4.60;95.00;;;;;;5023030;28;20472;-75
2020/12/01 05:38:13;;;;;;;31.92;16.60;;;4.60;95.00;;;;;;5061327;28;20033;-76
2020/12/01 05:41:09;;;;;;;34.03;17.58;;;4.60;95.10;;;;;;5040146;28;20021;-75
2020/12/01 05:43:37;;;;;;;34.03;17.92;;;4.60;95.00;;;;;;5016402;28;20163;-76
2020/12/01 05:46:31;;;;;;;36.67;18.98;;;4.60;95.00;;;;;;5039622;28;20367;-76
2020/12/01 05:49:15;;;;;;;36.75;17.90;;;4.60;95.00;;;;;;5057448;28;20029;-75
2020/12/01 05:51:45;;;;;;;35.78;16.98;;;4.60;95.10;;;;;;5039964;28;20029;-76
2020/12/01 05:54:16;;;;;;;38.88;18.50;;;4.60;94.90;;;;;;5040367;28;20754;-76
2020/12/01 05:56:51;;;;;;;37.35;17.83;;;4.60;95.00;;;;;;5019613;28;20031;-76
2020/12/01 05:59:19;;;;;;;34.10;17.60;;;4.60;94.90;;;;;;5039710;28;20016;-75
2020/12/01 06:01:48;;;;;;;35.88;17.95;;;4.60;95.00;;;;;;5001251;28;20045;-76
2020/12/01 06:04:18;;;;;;;35.58;16.88;;;4.60;94.90;;;;;;5024140;28;20107;-76
2020/12/01 06:07:06;;;;;;;32.55;17.10;;;4.60;94.90;;;;;;5022934;28;20031;-76
2020/12/01 06:09:41;;;;;;;32.75;16.67;;;4.60;95.00;;;;;;5025583;28;20029;-74
2020/12/01 06:12:19;;;;;;;33.10;15.75;;;4.60;95.00;;;;;;5059859;28;20574;-75
2020/12/01 06:14:57;;;;;;;34.10;17.65;;;4.60;95.00;;;;;;5022768;28;20028;-75
2020/12/01 06:17:54;;;;;;;35.08;17.83;;;4.60;95.00;;;;;;5041274;28;20016;-75
2020/12/01 06:20:34;;;;;;;40.60;18.15;;;4.60;95.10;;;;;;5020746;28;20048;-75
2020/12/01 06:23:21;;;;;;;36.88;18.92;;;4.60;95.10;;;;;;5045073;28;20147;-76
2020/12/01 06:26:17;;;;;;;37.53;17.80;;;4.60;95.20;;;;;;5045982;28;20121;-76
2020/12/01 06:28:46;;;;;;;43.17;19.50;;;4.60;95.20;;;;;;5028820;28;20082;-77
2020/12/01 06:31:30;;;;;;;44.78;21.33;;;4.60;95.10;;;;;;5059867;28;20019;-76
2020/12/01 06:34:24;;;;;;;38.05;18.85;;;4.60;95.20;;;;;;5051350;28;20025;-75
2020/12/01 06:37:12;;;;;;;41.53;19.25;;;4.60;95.20;;;;;;5037099;28;20120;-76
2020/12/01 06:39:52;;;;;;;42.00;20.52;;;4.60;95.20;;;;;;5035193;28;20104;-76
2020/12/01 06:42:26;;;;;;;42.80;19.38;;;4.60;95.20;;;;;;5042110;28;20036;-76
2020/12/01 06:45:20;;;;;;;33.35;16.92;;;4.60;95.30;;;;;;5024117;28;20027;-76
2020/12/01 06:47:48;;;;;;;39.40;17.55;;;4.60;95.30;;;;;;5040777;28;20048;-77
2020/12/01 06:50:19;;;;;;;36.20;19.25;;;4.60;95.30;;;;;;5056539;28;20032;-77
2020/12/01 06:53:01;;;;;;;34.72;17.13;;;4.60;95.30;;;;;;5038386;28;20024;-77
2020/12/01 06:55:41;;;;;;;38.28;18.42;;;4.60;95.20;;;;;;5049798;28;20025;-77
2020/12/01 06:58:31;;;;;;;32.10;17.08;;;4.60;95.20;;;;;;5054208;28;20017;-77
2020/12/01 07:01:10;;;;;;;36.42;17.50;;;4.70;95.10;;;;;;5044911;28;20108;-76
2020/12/01 07:03:36;;;;;;;39.28;18.90;;;4.70;95.10;;;;;;5046585;28;20055;-77
2020/12/01 07:06:17;;;;;;;33.13;17.80;;;4.70;95.00;;;;;;5036598;28;20063;-77
2020/12/01 07:08:42;;;;;;;36.33;18.30;;;4.70;95.00;;;;;;5041278;28;20025;-77
2020/12/01 07:11:30;;;;;;;34.35;18.00;;;4.70;95.00;;;;;;5036752;28;20035;-76
2020/12/01 07:14:11;;;;;;;35.33;17.95;;;4.70;95.00;;;;;;5039915;28;20471;-77
2020/12/01 07:16:43;;;;;;;40.33;18.63;;;4.70;95.00;;;;;;5046183;28;20039;-76
2020/12/01 07:19:38;;;;;;;36.65;17.88;;;4.70;95.00;;;;;;5057071;28;20059;-76
2020/12/01 07:22:20;;;;;;;39.10;19.13;;;4.70;94.90;;;;;;5037457;28;20021;-76
2020/12/01 07:25:15;;;;;;;41.45;20.05;;;4.70;94.90;;;;;;5038237;28;20088;-76
2020/12/01 07:28:06;;;;;;;34.80;18.60;;;4.70;94.80;;;;;;5031238;28;20073;-76
2020/12/01 07:30:49;;;;;;;37.50;17.85;;;4.70;94.80;;;;;;5007832;28;20048;-76
2020/12/01 07:33:21;;;;;;;36.25;17.70;;;4.60;94.80;;;;;;5029090;28;20029;-76
2020/12/01 07:35:53;;;;;;;36.45;18.00;;;4.70;94.80;;;;;;5057578;28;20025;-77
2020/12/01 07:38:34;;;;;;;38.45;18.88;;;4.60;94.80;;;;;;5037849;28;20075;-77
2020/12/01 07:41:23;;;;;;;39.70;18.17;;;4.60;95.00;;;;;;5047989;28;20021;-78
2020/12/01 07:44:05;;;;;;;34.72;18.05;;;4.60;95.00;;;;;;5044971;28;20159;-77
2020/12/01 07:49:20;;;;;;;33.08;16.77;;;4.60;94.90;;;;;;5049437;28;20499;-80
2020/12/01 07:51:47;;;;;;;36.88;18.95;;;4.60;95.00;;;;;;5053645;28;20033;-76
2020/12/01 07:54:25;;;;;;;35.63;17.20;;;4.60;95.00;;;;;;5041882;28;20029;-78
2020/12/01 07:56:51;;;;;;;34.85;18.05;;;4.70;95.00;;;;;;5037781;28;20052;-77
2020/12/01 07:59:17;;;;;;;37.45;18.48;;;4.70;94.90;;;;;;5043124;28;20053;-75
2020/12/01 08:01:46;;;;;;;42.17;20.73;;;4.60;94.90;;;;;;5034002;28;20038;-77
2020/12/01 08:04:18;;;;;;;34.47;17.50;;;4.70;94.90;;;;;;5041490;28;20037;-81
2020/12/01 08:06:56;;;;;;;32.00;16.90;;;4.70;94.90;;;;;;5048523;28;20036;-78
2020/12/01 08:09:24;;;;;;;35.10;18.42;;;4.70;95.10;;;;;;5047521;28;20021;-78
2020/12/01 08:11:54;;;;;;;39.03;19.38;;;4.90;95.90;;;;;;5022054;28;20025;-78
2020/12/01 08:14:19;;;;;;;33.38;17.17;;;5.00;94.70;;;;;;5043797;28;20390;-79
2020/12/01 08:17:25;;;;;;;29.38;15.13;;;5.00;94.30;;;;;;5044581;28;20024;-78
2020/12/01 08:19:54;;;;;;;35.58;17.02;;;4.90;94.40;;;;;;5030197;28;20059;-78
2020/12/01 08:22:23;;;;;;;37.92;17.60;;;4.90;94.30;;;;;;5045129;28;20025;-78
2020/12/01 08:24:56;;;;;;;35.17;17.65;;;4.90;94.40;;;;;;5057070;28;20464;-76
2020/12/01 08:27:30;;;;;;;35.28;17.73;;;4.80;94.40;;;;;;5061440;28;20107;-79
2020/12/01 08:29:58;;;;;;;34.42;17.60;;;4.80;94.40;;;;;;5019095;28;20021;-80
2020/12/01 08:32:32;;;;;;;31.35;16.50;;;4.80;94.40;;;;;;5044459;28;20056;-80
2020/12/01 08:35:28;;;;;;;34.20;17.85;;;4.80;94.40;;;;;;5038923;28;20063;-78
2020/12/01 08:37:56;;;;;;;34.75;17.67;;;4.80;94.50;;;;;;5031311;28;20033;-77
2020/12/01 08:40:41;;;;;;;31.10;16.50;;;4.80;94.40;;;;;;5039258;28;20024;-79
2020/12/01 08:43:46;;;;;;;32.05;16.88;;;4.70;94.50;;;;;;5060289;28;20017;-79
2020/12/01 08:46:22;;;;;;;35.15;17.98;;;4.70;94.50;;;;;;5045152;28;20025;-79
2020/12/01 08:49:23;;;;;;;32.47;15.70;;;4.70;94.50;;;;;;5027016;28;20357;-77
2020/12/01 08:51:53;;;;;;;35.05;17.08;;;4.70;94.60;;;;;;5039146;28;20391;-79
2020/12/01 08:54:26;;;;;;;35.77;18.10;;;4.70;94.50;;;;;;5040618;28;20020;-77
2020/12/01 08:57:10;;;;;;;33.78;17.60;;;4.70;94.50;;;;;;5036569;28;20318;-79
2020/12/01 08:59:42;;;;;;;38.35;18.55;;;4.70;94.50;;;;;;5054371;28;20436;-77
2020/12/01 09:02:10;;;;;;;34.00;17.30;;;4.70;94.50;;;;;;5031868;28;20454;-78
2020/12/01 09:04:37;;;;;;;36.55;17.35;;;4.80;94.50;;;;;;5035979;28;20025;-78
2020/12/01 09:07:20;;;;;;;35.40;18.10;;;4.80;94.50;;;;;;5051583;28;20044;-77
2020/12/01 09:09:49;;;;;;;34.72;18.10;;;4.80;94.50;;;;;;5036505;28;20044;-76
2020/12/01 09:12:26;;;;;;;34.03;17.15;;;4.80;94.40;;;;;;5038673;28;20029;-77
2020/12/01 09:15:08;;;;;;;35.25;16.83;;;4.80;94.50;;;;;;5056539;28;20040;-77
2020/12/01 09:18:06;;;;;;;31.52;16.90;;;4.80;94.40;;;;;;5060762;28;20488;-78
2020/12/01 09:23:37;;;;;;;32.03;16.50;;;4.80;94.20;;;;;;5039540;28;20112;-76
2020/12/01 09:26:16;;;;;;;36.15;18.90;;;4.80;94.30;;;;;;5055054;28;20021;-76
2020/12/01 09:28:50;;;;;;;33.95;16.75;;;4.80;94.50;;;;;;5041134;28;20590;-77
2020/12/01 09:31:18;;;;;;;35.40;18.85;;;4.80;94.50;;;;;;5057071;28;20079;-78
2020/12/01 09:33:43;;;;;;;36.05;18.67;;;4.80;94.50;;;;;;5039871;28;20479;-78
2020/12/01 09:36:16;;;;;;;38.28;19.67;;;4.80;94.50;;;;;;5044168;28;20082;-78
2020/12/01 09:38:42;;;;;;;38.65;19.60;;;4.80;94.40;;;;;;5042814;28;20029;-78
2020/12/01 09:41:13;;;;;;;42.33;19.67;;;4.80;94.50;;;;;;5043437;28;20045;-79
2020/12/01 09:43:47;;;;;;;40.67;20.83;;;4.90;94.60;;;;;;5024798;28;20496;-78
2020/12/01 09:46:14;;;;;;;42.17;20.38;;;4.90;94.60;;;;;;5021655;28;20353;-78
2020/12/01 09:48:42;;;;;;;42.33;19.92;;;4.90;94.60;;;;;;5053817;28;20632;-78
2020/12/01 09:51:08;;;;;;;39.13;19.33;;;4.90;94.50;;;;;;5040285;28;20128;-77
2020/12/01 10:09:45;;;;;;;44.30;20.13;;;4.90;94.60;;;;;;5053762;28;20035;-78
2020/12/01 10:12:17;;;;;;;45.05;21.02;;;4.90;94.60;;;;;;5047658;28;20531;-78
2020/12/01 10:36:22;;;;;;;42.40;20.55;;;5.00;95.20;;;;;;5063848;28;20021;-77
2020/12/01 10:38:48;;;;;;;38.20;19.10;;;5.20;94.70;;;;;;5043333;28;20066;-78
2020/12/01 10:41:14;;;;;;;41.55;20.08;;;5.10;94.30;;;;;;5028610;28;20060;-78
2020/12/01 10:43:40;;;;;;;38.85;19.88;;;5.10;94.30;;;;;;5028633;28;20147;-78
2020/12/01 10:46:08;;;;;;;40.05;19.55;;;5.10;94.10;;;;;;5046951;28;20095;-75
2020/12/01 10:48:34;;;;;;;43.63;21.50;;;5.10;94.20;;;;;;5040388;28;20111;-74
2020/12/01 10:51:00;;;;;;;42.42;19.83;;;5.10;94.20;;;;;;5042607;28;20037;-75
2020/12/01 10:53:25;;;;;;;37.97;18.70;;;5.20;94.00;;;;;;5027845;28;20056;-75
2020/12/01 10:55:51;;;;;;;38.08;18.73;;;5.10;93.90;;;;;;5043142;28;20116;-74
2020/12/01 10:58:17;;;;;;;35.83;17.95;;;5.10;93.80;;;;;;5061581;28;20032;-74
2020/12/01 11:00:42;;;;;;;38.90;18.75;;;5.10;94.00;;;;;;5043624;28;20128;-75
2020/12/01 11:03:08;;;;;;;33.28;17.52;;;5.10;94.10;;;;;;5042872;28;20025;-74
2020/12/01 11:05:33;;;;;;;39.95;19.30;;;5.10;94.20;;;;;;5034610;28;20029;-75
2020/12/01 11:08:00;;;;;;;36.83;17.83;;;5.10;94.00;;;;;;5036586;28;20403;-74
2020/12/01 11:10:27;;;;;;;34.15;17.92;;;5.10;94.10;;;;;;5041055;28;20094;-75
2020/12/01 11:12:52;;;;;;;37.17;18.27;;;5.10;94.10;;;;;;5042483;28;20029;-75
2020/12/01 11:15:19;;;;;;;41.53;19.85;;;5.10;94.20;;;;;;5015864;28;20094;-75
2020/12/01 11:17:44;;;;;;;39.55;18.63;;;5.10;94.10;;;;;;5031386;28;20033;-75
2020/12/01 11:20:11;;;;;;;40.33;20.23;;;5.10;94.10;;;;;;5002338;28;20473;-75
2020/12/01 11:22:37;;;;;;;41.75;19.00;;;5.10;94.10;;;;;;5019499;28;20029;-75
2020/12/01 11:25:03;;;;;;;43.92;19.40;;;5.10;94.20;;;;;;5007611;28;20369;-75
2020/12/01 11:27:29;;;;;;;39.83;19.40;;;5.10;94.00;;;;;;5044592;28;20106;-75
2020/12/01 11:29:55;;;;;;;37.92;19.05;;;5.10;94.00;;;;;;5048600;28;20482;-75
2020/12/01 11:32:21;;;;;;;37.65;17.88;;;5.10;94.10;;;;;;5033981;28;20029;-77
2020/12/01 11:34:46;;;;;;;39.22;19.10;;;5.10;94.10;;;;;;5035882;28;20021;-76
2020/12/01 11:37:12;;;;;;;38.00;17.77;;;5.10;94.00;;;;;;5031281;28;20036;-77
2020/12/01 11:39:38;;;;;;;38.20;18.95;;;5.10;94.00;;;;;;5039348;28;20477;-76
2020/12/01 11:42:04;;;;;;;41.03;18.23;;;5.10;94.10;;;;;;5041010;28;20037;-74
2020/12/01 11:44:29;;;;;;;44.35;21.35;;;5.10;94.20;;;;;;5029871;28;20464;-75
2020/12/01 11:46:56;;;;;;;40.30;18.33;;;5.10;94.10;;;;;;5059407;28;20500;-75
2020/12/01 11:49:23;;;;;;;39.63;18.52;;;5.10;94.10;;;;;;5058689;28;20031;-76
2020/12/01 11:51:49;;;;;;;41.05;19.80;;;5.10;94.00;;;;;;5061620;28;20079;-76
2020/12/01 11:54:16;;;;;;;34.58;17.33;;;5.10;94.00;;;;;;5023548;28;20028;-76
2020/12/01 11:56:42;;;;;;;42.53;20.65;;;5.10;94.00;;;;;;5029376;28;20056;-76
2020/12/01 11:59:08;;;;;;;38.85;17.60;;;5.10;93.90;;;;;;5038774;28;20024;-74
2020/12/01 12:01:35;;;;;;;39.75;18.50;;;5.20;93.80;;;;;;5053537;28;20032;-75
2020/12/01 12:04:02;;;;;;;40.33;18.80;;;5.10;93.90;;;;;;5038006;28;20048;-74
2020/12/01 12:06:28;;;;;;;38.38;19.25;;;5.10;94.00;;;;;;5016368;28;20075;-74
2020/12/01 12:08:54;;;;;;;38.55;18.58;;;5.10;93.90;;;;;;5031820;28;20476;-74
2020/12/01 12:11:19;;;;;;;36.40;16.35;;;5.10;94.30;;;;;;5051440;28;20059;-75
2020/12/01 12:13:46;;;;;;;37.60;17.45;;;5.20;94.40;;;;;;5021647;28;20021;-74
2020/12/01 12:16:16;;;;;;;34.97;17.00;;;5.10;94.20;;;;;;5032875;28;20029;-74
2020/12/01 12:18:43;;;;;;;34.85;17.52;;;5.10;94.20;;;;;;5030071;28;20047;-73
2020/12/01 12:21:09;;;;;;;40.03;18.35;;;5.10;94.20;;;;;;5056454;28;20530;-76
2020/12/01 12:23:35;;;;;;;34.30;16.45;;;5.20;94.20;;;;;;5022018;28;20102;-75
2020/12/01 12:26:00;;;;;;;40.33;17.48;;;5.20;94.10;;;;;;5022271;28;20033;-73
2020/12/01 12:28:26;;;;;;;38.28;16.73;;;5.20;94.00;;;;;;5032837;28;20093;-74
2020/12/01 12:30:53;;;;;;;1114.60;674.45;;;5.10;94.10;;;;;;5036265;28;20036;-74
2020/12/01 12:33:20;;;;;;;762.90;434.60;;;5.20;94.90;;;;;;5021535;28;20123;-74
2020/12/01 12:35:50;;;;;;;873.33;478.77;;;5.30;94.50;;;;;;5033663;28;20032;-74
2020/12/01 12:38:16;;;;;;;54.33;27.58;;;5.30;94.30;;;;;;5053162;28;20123;-74
2020/12/01 12:40:42;;;;;;;36.10;18.30;;;5.30;93.80;;;;;;5017829;28;20238;-75
2020/12/01 12:43:07;;;;;;;33.45;15.10;;;5.30;93.80;;;;;;5034964;28;20071;-74
2020/12/01 12:45:33;;;;;;;34.75;15.77;;;5.30;93.70;;;;;;5027778;28;20017;-74
2020/12/01 12:47:59;;;;;;;31.52;16.10;;;5.20;93.70;;;;;;5055182;28;20029;-74
2020/12/01 12:52:52;;;;;;;30.60;15.93;;;5.20;93.90;;;;;;5097068;28;20056;-76
2020/12/01 12:55:18;;;;;;;35.88;17.20;;;5.20;93.70;;;;;;5074423;28;20024;-75
2020/12/01 12:57:44;;;;;;;33.92;16.60;;;5.20;93.80;;;;;;5053553;28;20027;-77
2020/12/01 13:00:11;;;;;;;34.42;16.40;;;5.20;93.60;;;;;;5098836;28;20485;-75
2020/12/01 13:02:37;;;;;;;33.65;16.75;;;5.30;93.50;;;;;;5063182;28;20135;-77
2020/12/01 13:05:03;;;;;;;33.75;16.45;;;5.30;93.50;;;;;;5080063;28;20538;-77
2020/12/01 13:07:28;;;;;;;36.60;17.85;;;5.20;93.50;;;;;;5078962;28;20023;-77
2020/12/01 13:09:54;;;;;;;39.83;18.70;;;5.20;93.60;;;;;;5064219;28;20122;-75
2020/12/01 13:12:20;;;;;;;36.55;17.50;;;5.10;93.60;;;;;;5079533;28;20384;-76
2020/12/01 13:14:47;;;;;;;39.95;16.95;;;5.10;93.80;;;;;;5097191;28;20035;-77
2020/12/01 13:17:13;;;;;;;35.88;17.23;;;5.10;94.00;;;;;;5079142;28;20137;-77
2020/12/01 13:19:39;;;;;;;33.22;15.40;;;5.10;94.10;;;;;;5079290;28;20110;-77
2020/12/01 13:22:04;;;;;;;35.13;15.48;;;5.20;93.90;;;;;;5079802;28;20031;-77
2020/12/01 13:24:30;;;;;;;33.42;15.45;;;5.20;93.80;;;;;;5084168;28;20111;-76
2020/12/01 13:26:56;;;;;;;34.42;15.55;;;5.20;93.60;;;;;;5065914;28;20497;-77
2020/12/01 13:29:21;;;;;;;32.35;14.18;;;5.20;93.70;;;;;;5080570;28;20032;-76
2020/12/01 13:31:48;;;;;;;32.20;15.27;;;5.20;93.80;;;;;;5098285;28;20111;-77
2020/12/01 13:34:16;;;;;;;33.67;15.82;;;5.20;93.80;;;;;;5080229;28;20039;-77
2020/12/01 13:36:47;;;;;;;34.15;16.15;;;5.10;93.90;;;;;;5099591;28;20405;-78
2020/12/01 13:39:13;;;;;;;30.25;14.73;;;5.10;94.00;;;;;;5065264;28;20119;-77
2020/12/01 13:41:42;;;;;;;28.88;13.85;;;5.10;93.90;;;;;;5081340;28;20609;-74
2020/12/01 13:44:08;;;;;;;31.83;14.80;;;5.20;93.80;;;;;;5069779;28;20071;-77